Time;durP1;ratioP1;P1;durP2;ratioP2;P2;SDS_P1;SDS_P2;PMS_P1;PMS_P2;Temp;Humidity;BMP_temperature;BMP_pressure;BME280_temperature;BME280_humidity;BME280_pressure;Samples;Min_cycle;Max_cycle;Signal;HPM_P1;HPM_P2
2022/06/01 00:01:48;;;;;;;4.60;2.50;;;;;;;9.31;85.72;101366.47;5043658;28;20728;-71
2022/06/01 00:04:14;;;;;;;2.60;1.87;;;;;;;9.36;86.23;101359.81;5044514;28;20194;-71
2022/06/01 00:06:40;;;;;;;2.37;2.17;;;;;;;9.37;85.98;101356.47;5043739;28;20189;-71
2022/06/01 00:09:05;;;;;;;2.47;1.73;;;;;;;9.30;86.23;101354.50;5044896;28;20706;-71
2022/06/01 00:11:32;;;;;;;3.00;2.43;;;;;;;9.30;85.90;101353.66;5045939;28;20182;-71
2022/06/01 00:13:57;;;;;;;3.47;2.50;;;;;;;9.26;86.52;101357.78;5043800;28;20202;-70
2022/06/01 00:16:23;;;;;;;2.77;2.50;;;;;;;9.23;86.22;101352.59;5026892;28;20232;-71
2022/06/01 00:18:48;;;;;;;2.70;2.10;;;;;;;9.24;85.88;101356.00;5026751;28;20237;-71
2022/06/01 00:21:13;;;;;;;4.33;2.30;;;;;;;9.22;86.14;101349.97;5044884;28;20265;-71
2022/06/01 00:23:39;;;;;;;2.50;2.23;;;;;;;9.25;85.56;101356.06;5045438;28;21579;-71
2022/06/01 00:26:04;;;;;;;2.40;2.20;;;;;;;9.14;86.79;101354.84;5038434;28;20802;-71
2022/06/01 00:28:30;;;;;;;4.77;2.40;;;;;;;9.21;86.73;101353.38;5043414;28;20344;-71
2022/06/01 00:30:55;;;;;;;3.03;2.37;;;;;;;9.18;87.21;101349.03;5019901;28;20191;-71
2022/06/01 00:33:21;;;;;;;2.37;2.17;;;;;;;9.20;86.68;101342.25;5037609;28;20182;-71
2022/06/01 00:35:46;;;;;;;2.67;2.47;;;;;;;9.23;87.10;101344.94;5038010;28;20181;-71
2022/06/01 00:38:12;;;;;;;3.97;2.70;;;;;;;9.19;87.20;101335.44;5042870;28;20280;-71
2022/06/01 00:40:38;;;;;;;2.90;2.67;;;;;;;9.28;86.77;101342.50;5026424;28;20929;-71
2022/06/01 00:43:18;;;;;;;3.27;2.73;;;;;;;9.38;87.77;101340.31;5043332;28;20728;-71
2022/06/01 00:45:43;;;;;;;2.50;2.30;;;;;;;9.45;87.90;101338.81;5038118;28;20291;-71
2022/06/01 00:48:08;;;;;;;4.03;2.40;;;;;;;9.52;88.52;101338.16;5042526;28;20683;-71
2022/06/01 00:50:39;;;;;;;2.50;2.30;;;;;;;9.57;88.03;101334.94;5037560;28;20183;-71
2022/06/01 00:53:11;;;;;;;4.03;2.40;;;;;;;9.60;87.91;101332.50;5041422;28;20200;-71
2022/06/01 00:55:52;;;;;;;2.50;2.27;;;;;;;9.63;87.69;101327.44;5017415;28;20198;-71
2022/06/01 00:58:21;;;;;;;3.00;2.33;;;;;;;9.67;88.72;101329.28;5019475;28;20338;-71
2022/06/01 01:00:50;;;;;;;2.80;2.30;;;;;;;9.69;88.75;101329.34;5042329;28;20194;-71
2022/06/01 01:03:17;;;;;;;2.80;2.50;;;;;;;9.71;87.90;101325.13;5042261;28;20194;-71
2022/06/01 01:05:51;;;;;;;2.40;2.20;;;;;;;9.70;89.14;101328.50;5023120;28;20733;-71
2022/06/01 01:08:16;;;;;;;2.80;2.30;;;;;;;9.69;89.59;101330.22;5035767;28;20206;-71
2022/06/01 01:10:42;;;;;;;3.97;2.27;;;;;;;9.74;89.49;101322.69;5036269;28;20186;-71
2022/06/01 01:13:10;;;;;;;2.63;2.43;;;;;;;9.77;89.01;101331.28;5043298;28;20666;-71
2022/06/01 01:15:43;;;;;;;3.50;2.47;;;;;;;9.78;89.53;101325.38;5037106;28;20198;-71
2022/06/01 01:18:17;;;;;;;2.93;2.63;;;;;;;9.78;89.54;101321.94;5047295;28;20213;-71
2022/06/01 01:21:06;;;;;;;2.90;2.50;;;;;;;9.79;90.27;101326.25;5026228;28;20241;-71
2022/06/01 01:23:53;;;;;;;3.87;2.70;;;;;;;9.81;89.15;101320.34;5041574;28;20266;-71
2022/06/01 01:26:21;;;;;;;2.63;2.40;;;;;;;9.89;90.01;101323.13;5039987;28;20671;-71
2022/06/01 01:28:46;;;;;;;3.60;2.70;;;;;;;9.93;89.39;101318.16;5042691;28;20210;-71
2022/06/01 01:31:18;;;;;;;2.90;2.70;;;;;;;9.96;89.72;101318.22;5043370;28;20194;-71
2022/06/01 01:33:45;;;;;;;3.50;2.40;;;;;;;9.99;89.64;101320.88;5041597;28;20289;-71
2022/06/01 01:36:14;;;;;;;3.90;2.83;;;;;;;9.99;89.08;101307.22;5033579;28;20189;-71
2022/06/01 01:38:49;;;;;;;3.47;2.30;;;;;;;9.99;89.89;101309.78;5036645;28;20293;-71
2022/06/01 01:41:38;;;;;;;2.93;2.63;;;;;;;9.98;89.87;101308.94;5033749;28;20173;-71
2022/06/01 01:44:27;;;;;;;3.90;2.43;;;;;;;9.99;90.02;101313.22;5035476;28;20194;-71
2022/06/01 01:46:53;;;;;;;3.23;2.57;;;;;;;9.98;89.40;101308.94;5043194;28;20277;-71
2022/06/01 01:49:25;;;;;;;2.87;2.57;;;;;;;9.99;89.94;101307.22;5039035;28;20197;-71
2022/06/01 01:51:53;;;;;;;2.87;2.60;;;;;;;9.95;89.69;101303.72;5040790;28;20633;-71
2022/06/01 01:54:26;;;;;;;3.07;2.40;;;;;;;9.91;89.76;101301.88;5042797;28;20682;-72
2022/06/01 01:57:11;;;;;;;3.03;2.53;;;;;;;9.91;89.50;101301.03;5023288;28;20420;-71
2022/06/01 02:00:03;;;;;;;2.77;2.50;;;;;;;9.85;88.36;101306.81;5015859;28;20233;-71
2022/06/01 02:02:43;;;;;;;3.37;2.60;;;;;;;9.81;89.15;101304.16;5034193;28;20281;-71
2022/06/01 02:08:25;;;;;;;2.87;2.50;;;;;;;9.71;89.47;101302.13;5034937;28;20233;-71
2022/06/01 02:13:42;;;;;;;4.00;2.90;;;;;;;9.61;89.15;101297.56;5037508;28;20194;-71
2022/06/01 02:16:08;;;;;;;3.03;2.70;;;;;;;9.53;89.01;101299.00;5041425;28;20217;-71
2022/06/01 02:18:41;;;;;;;3.03;2.73;;;;;;;9.51;89.40;101303.22;5036874;28;20220;-71
2022/06/01 02:21:17;;;;;;;3.90;2.70;;;;;;;9.55;88.95;101299.94;5037669;28;20404;-71
2022/06/01 02:23:43;;;;;;;2.90;2.70;;;;;;;9.55;88.52;101298.25;5035156;28;20258;-71
2022/06/01 02:26:09;;;;;;;2.47;2.27;;;;;;;9.55;88.43;101299.94;5035959;28;20193;-71
2022/06/01 02:28:40;;;;;;;2.70;2.50;;;;;;;9.49;88.39;101298.03;5031357;28;20210;-71
2022/06/01 02:31:07;;;;;;;2.83;2.57;;;;;;;9.52;89.05;101297.28;5029337;28;20189;-71
2022/06/01 02:33:34;;;;;;;4.20;2.83;;;;;;;9.50;87.74;101302.31;5029711;28;20199;-71
2022/06/01 02:36:03;;;;;;;3.40;2.90;;;;;;;9.50;88.33;101304.88;5012823;28;20190;-71
2022/06/01 02:38:43;;;;;;;3.47;2.80;;;;;;;9.45;89.21;101291.09;5012126;28;20233;-71
2022/06/01 02:42:25;;;;;;;3.10;2.80;;;;;;;9.41;88.62;101294.41;5029085;28;20511;-71
2022/06/01 02:43:54;;;;;;;3.50;2.90;;;;;;;9.38;89.05;101288.31;5010725;28;20209;-71
2022/06/01 02:46:20;;;;;;;4.07;2.60;;;;;;;9.39;89.14;101295.16;5029367;28;20566;-71
2022/06/01 02:48:46;;;;;;;2.93;2.67;;;;;;;9.41;89.81;101293.53;5011625;28;20291;-71
2022/06/01 02:51:11;;;;;;;4.80;2.73;;;;;;;9.38;88.78;101291.75;5028621;28;20240;-71
2022/06/01 02:53:37;;;;;;;2.93;2.63;;;;;;;9.36;89.63;101288.25;5029721;28;20248;-70
2022/06/01 02:56:03;;;;;;;3.10;2.80;;;;;;;9.34;89.34;101286.47;5011454;28;20186;-71
2022/06/01 02:58:28;;;;;;;3.77;2.77;;;;;;;9.32;88.73;101285.56;5011813;28;20222;-71
2022/06/01 03:00:54;;;;;;;3.80;2.80;;;;;;;9.24;89.46;101285.34;5028745;28;20205;-71
2022/06/01 03:03:21;;;;;;;3.67;2.63;;;;;;;9.20;89.69;101285.19;5029042;28;20259;-71
2022/06/01 03:05:46;;;;;;;3.10;2.80;;;;;;;9.19;89.09;101288.56;5029669;28;20660;-71
2022/06/01 03:08:11;;;;;;;4.37;3.20;;;;;;;9.17;90.21;101285.94;5029002;28;20337;-71
2022/06/01 03:10:37;;;;;;;3.57;2.90;;;;;;;9.15;90.15;101286.72;5028163;28;20235;-71
2022/06/01 03:13:04;;;;;;;2.60;2.40;;;;;;;9.15;89.49;101274.81;5027305;28;20269;-71
2022/06/01 03:15:30;;;;;;;3.27;2.97;;;;;;;9.11;89.51;101279.78;5029581;28;20577;-71
2022/06/01 03:17:55;;;;;;;4.57;2.90;;;;;;;9.06;89.89;101274.53;5011035;28;20214;-71
2022/06/01 03:20:22;;;;;;;3.53;2.97;;;;;;;9.08;90.56;101270.31;5028735;28;20292;-71
2022/06/01 03:22:48;;;;;;;4.17;3.03;;;;;;;9.06;90.13;101265.97;5029287;28;20242;-71
2022/06/01 03:25:17;;;;;;;3.90;2.90;;;;;;;9.05;90.86;101260.03;5029226;28;20202;-71
2022/06/01 03:27:42;;;;;;;4.20;3.80;;;;;;;9.04;91.51;101254.88;5029266;28;20307;-71
2022/06/01 03:30:11;;;;;;;5.20;3.80;;;;;;;9.02;91.96;101259.03;5011131;28;20218;-71
2022/06/01 03:32:37;;;;;;;4.10;3.77;;;;;;;9.07;91.66;101262.63;5011051;28;20198;-71
2022/06/01 03:35:04;;;;;;;4.77;3.80;;;;;;;9.10;91.62;101253.38;5029065;28;20203;-71
2022/06/01 03:37:31;;;;;;;6.30;4.23;;;;;;;9.09;91.53;101266.09;5028937;28;20296;-71
2022/06/01 03:39:56;;;;;;;4.80;4.20;;;;;;;9.08;90.83;101259.25;5028001;28;20336;-71
2022/06/01 03:42:21;;;;;;;3.80;3.23;;;;;;;9.12;91.63;101267.06;5028360;28;20715;-71
2022/06/01 03:47:32;;;;;;;4.53;3.57;;;;;;;9.15;91.45;101262.06;5028468;28;20717;-71
2022/06/01 03:49:57;;;;;;;5.03;3.93;;;;;;;9.23;91.65;101263.16;5028895;28;20190;-71
2022/06/01 03:52:25;;;;;;;4.50;3.47;;;;;;;9.26;90.92;101263.25;5028359;28;20193;-72
2022/06/01 03:54:50;;;;;;;3.73;3.30;;;;;;;9.28;90.26;101264.19;5028143;28;20195;-71
2022/06/01 03:57:16;;;;;;;5.60;3.93;;;;;;;9.32;90.58;101270.25;5027924;28;20774;-71
2022/06/01 03:59:41;;;;;;;3.83;3.53;;;;;;;9.36;90.47;101270.38;5028178;28;20241;-71
2022/06/01 04:02:07;;;;;;;4.07;3.60;;;;;;;9.47;90.36;101274.13;5028313;28;20244;-70
2022/06/01 04:04:34;;;;;;;4.87;3.47;;;;;;;9.57;90.45;101275.25;5010848;28;20197;-71
2022/06/01 04:06:59;;;;;;;4.47;3.97;;;;;;;9.67;90.84;101282.41;5028962;28;20190;-71
2022/06/01 04:09:24;;;;;;;4.17;3.73;;;;;;;9.70;91.07;101279.94;5028273;28;20190;-71
2022/06/01 04:11:51;;;;;;;4.63;3.77;;;;;;;9.78;90.98;101287.03;5027454;28;20186;-71
2022/06/01 04:14:19;;;;;;;5.47;4.20;;;;;;;9.91;91.02;101281.41;5028426;28;20328;-71
2022/06/01 04:16:44;;;;;;;5.10;4.20;;;;;;;10.07;91.33;101278.53;5028979;28;20191;-71
2022/06/01 04:19:10;;;;;;;4.33;3.93;;;;;;;10.23;90.98;101283.22;5029061;28;20703;-71
2022/06/01 04:21:38;;;;;;;5.03;3.77;;;;;;;10.32;91.23;101274.97;5028446;28;20212;-71
2022/06/01 04:24:05;;;;;;;5.17;3.70;;;;;;;10.44;91.28;101271.03;5011160;28;20205;-71
2022/06/01 04:26:31;;;;;;;4.20;3.60;;;;;;;10.55;91.03;101264.47;5028284;28;20202;-71
2022/06/01 04:28:56;;;;;;;6.13;3.60;;;;;;;10.67;91.09;101271.63;5028726;28;20210;-71
2022/06/01 04:31:22;;;;;;;5.17;3.53;;;;;;;10.73;90.67;101271.78;5029754;28;20248;-71
2022/06/01 04:33:47;;;;;;;3.53;3.23;;;;;;;10.81;90.10;101276.28;5032661;28;20190;-71
2022/06/01 04:36:13;;;;;;;3.40;3.10;;;;;;;10.93;89.40;101283.41;5031681;28;20186;-72
2022/06/01 04:38:38;;;;;;;3.83;3.53;;;;;;;10.94;89.48;101292.81;5032172;28;20248;-72
2022/06/01 04:41:03;;;;;;;3.77;3.47;;;;;;;10.95;89.82;101297.97;5032053;28;20194;-71
2022/06/01 04:43:29;;;;;;;7.37;4.30;;;;;;;10.87;90.44;101309.72;5031652;28;20248;-71
2022/06/01 04:45:56;;;;;;;5.03;4.53;;;;;;;10.70;91.06;101307.56;5032101;28;20290;-71
2022/06/01 04:48:23;;;;;;;4.83;4.43;;;;;;;10.74;91.08;101309.38;5013938;28;20237;-71
2022/06/01 04:50:50;;;;;;;5.40;4.90;;;;;;;10.67;90.70;101302.34;5032081;28;20190;-71
2022/06/01 04:53:17;;;;;;;6.13;5.60;;;;;;;10.68;90.21;101299.81;5030927;28;20222;-71
2022/06/01 04:55:44;;;;;;;5.50;5.00;;;;;;;10.73;90.35;101299.97;5030938;28;20193;-71
2022/06/01 04:58:10;;;;;;;6.70;5.23;;;;;;;10.80;89.86;101294.16;5030698;28;20238;-71
2022/06/01 05:00:36;;;;;;;6.23;4.40;;;;;;;10.87;89.25;101289.22;5031369;28;20182;-71
2022/06/01 05:03:02;;;;;;;5.27;4.77;;;;;;;10.93;89.88;101289.38;5014068;28;20186;-71
2022/06/01 05:05:28;;;;;;;4.63;4.23;;;;;;;10.95;89.73;101295.41;5031500;28;20663;-71
2022/06/01 05:07:53;;;;;;;4.70;4.20;;;;;;;10.93;88.68;101298.78;5031571;28;20241;-71
2022/06/01 05:10:21;;;;;;;5.63;4.60;;;;;;;10.99;89.05;101298.91;5030983;28;20659;-71
2022/06/01 05:12:46;;;;;;;5.67;5.00;;;;;;;10.98;89.61;101305.75;5031235;28;20195;-71
2022/06/01 05:15:12;;;;;;;5.33;4.40;;;;;;;11.05;89.46;101310.19;5031305;28;20281;-72
2022/06/01 05:17:37;;;;;;;5.43;4.53;;;;;;;11.14;89.54;101310.41;5012953;28;20536;-71
2022/06/01 05:20:04;;;;;;;5.17;3.97;;;;;;;11.19;89.64;101313.06;5030715;28;20222;-71
2022/06/01 05:22:29;;;;;;;4.87;4.47;;;;;;;11.20;89.90;101314.84;5031161;28;20659;-71
2022/06/01 05:24:54;;;;;;;5.57;4.40;;;;;;;11.22;89.97;101325.97;5031509;28;20200;-71
2022/06/01 05:27:20;;;;;;;5.77;4.60;;;;;;;11.24;90.59;101324.34;5012106;28;20241;-72
2022/06/01 05:29:46;;;;;;;5.00;4.53;;;;;;;11.28;90.67;101316.75;5030178;28;20187;-71
2022/06/01 05:32:12;;;;;;;5.00;4.60;;;;;;;11.32;91.09;101323.69;5030693;28;20574;-70
2022/06/01 05:34:37;;;;;;;5.00;4.13;;;;;;;11.36;90.71;101322.03;5031179;28;20198;-71
2022/06/01 05:37:03;;;;;;;5.00;4.43;;;;;;;11.40;91.52;101318.72;5031079;28;20221;-71
2022/06/01 05:39:28;;;;;;;5.03;4.53;;;;;;;11.33;91.47;101330.53;5030199;28;20229;-70
2022/06/01 05:41:53;;;;;;;7.33;5.13;;;;;;;11.31;91.66;101336.44;5012393;28;20239;-71
2022/06/01 05:44:19;;;;;;;5.10;4.60;;;;;;;11.24;91.92;101342.28;5030401;28;20221;-71
2022/06/01 05:46:44;;;;;;;5.03;4.53;;;;;;;11.17;92.03;101342.94;5031235;28;20206;-71
2022/06/01 05:49:09;;;;;;;7.07;4.63;;;;;;;11.15;92.12;101348.03;5030686;28;20209;-71
2022/06/01 05:51:35;;;;;;;4.57;4.00;;;;;;;11.11;92.36;101353.91;5013327;28;20186;-71
2022/06/01 05:54:02;;;;;;;5.90;4.93;;;;;;;11.06;92.79;101347.78;5031207;28;20585;-71
2022/06/01 05:56:27;;;;;;;6.07;4.57;;;;;;;11.05;92.97;101346.06;5028364;28;20278;-70
2022/06/01 05:58:52;;;;;;;6.03;4.90;;;;;;;11.01;93.05;101340.84;5030258;28;20309;-71
2022/06/01 06:01:21;;;;;;;6.17;4.97;;;;;;;11.00;93.08;101347.66;4996049;28;20225;-71
2022/06/01 06:03:47;;;;;;;5.30;4.80;;;;;;;10.99;93.57;101347.59;5030408;28;20281;-71
2022/06/01 06:06:12;;;;;;;7.10;5.13;;;;;;;10.96;93.09;101353.50;5030104;28;20281;-71
2022/06/01 06:08:40;;;;;;;5.50;5.00;;;;;;;10.96;93.29;101361.19;5030413;28;20675;-72
2022/06/01 06:11:06;;;;;;;5.93;5.33;;;;;;;10.94;93.20;101362.88;5012129;28;20213;-71
2022/06/01 06:13:35;;;;;;;7.60;5.63;;;;;;;10.95;93.24;101362.03;5029885;28;20186;-73
2022/06/01 06:16:02;;;;;;;7.60;6.40;;;;;;;10.94;93.35;101354.31;5028283;28;20186;-71
2022/06/01 06:18:28;;;;;;;7.20;6.37;;;;;;;10.91;93.92;101357.66;5029664;28;20230;-70
2022/06/01 06:20:53;;;;;;;7.03;5.80;;;;;;;10.90;93.74;101350.81;5008155;28;20194;-70
2022/06/01 06:23:18;;;;;;;7.67;6.83;;;;;;;10.93;93.16;101350.00;5010313;28;20191;-71
2022/06/01 06:25:44;;;;;;;8.13;7.30;;;;;;;10.90;94.05;101350.81;5010534;28;20282;-71
2022/06/01 06:28:10;;;;;;;8.07;7.07;;;;;;;10.88;94.61;101351.59;4992423;28;20242;-71
2022/06/01 06:30:38;;;;;;;9.07;7.57;;;;;;;10.88;94.54;101366.97;5010383;28;20199;-71
2022/06/01 06:33:04;;;;;;;9.23;8.07;;;;;;;10.86;94.23;101369.47;5014224;28;20202;-70
2022/06/01 06:35:29;;;;;;;8.97;7.90;;;;;;;10.88;94.54;101378.06;5029745;28;20605;-71
2022/06/01 06:37:54;;;;;;;10.20;9.13;;;;;;;10.91;94.16;101374.72;5029705;28;20211;-71
2022/06/01 06:40:20;;;;;;;11.13;9.60;;;;;;;10.95;94.11;101376.53;5046755;28;20247;-71
2022/06/01 06:42:46;;;;;;;9.73;8.73;;;;;;;10.99;94.60;101366.41;5022958;28;20202;-70
2022/06/01 06:45:12;;;;;;;11.53;10.27;;;;;;;11.00;94.64;101357.88;5029758;28;20212;-70
2022/06/01 06:47:38;;;;;;;12.23;10.80;;;;;;;11.02;95.03;101351.09;5030118;28;20290;-71
2022/06/01 06:50:07;;;;;;;16.17;11.77;;;;;;;11.00;95.62;101345.06;5011021;28;20561;-70
2022/06/01 06:52:33;;;;;;;15.73;12.97;;;;;;;11.02;95.65;101340.00;5029752;28;20198;-70
2022/06/01 06:54:58;;;;;;;14.07;12.27;;;;;;;11.10;95.52;101335.94;5029542;28;20191;-70
2022/06/01 06:57:24;;;;;;;20.17;18.07;;;;;;;11.16;95.79;101334.38;4995219;28;20215;-70
2022/06/01 06:59:49;;;;;;;16.63;15.03;;;;;;;11.22;95.48;101316.59;5009898;28;20187;-71
2022/06/01 07:02:16;;;;;;;14.13;12.47;;;;;;;11.30;94.85;101317.63;5009706;28;20186;-71
2022/06/01 07:04:42;;;;;;;15.80;12.40;;;;;;;11.31;94.96;101321.94;5010123;28;20187;-71
2022/06/01 07:07:07;;;;;;;10.90;9.80;;;;;;;11.42;94.80;101322.19;5009597;28;20273;-70
2022/06/01 07:09:33;;;;;;;13.17;10.83;;;;;;;11.53;94.27;101319.03;5026003;28;20226;-71
2022/06/01 07:11:58;;;;;;;14.87;11.83;;;;;;;11.60;94.44;101313.25;5029525;28;20191;-70
2022/06/01 07:14:24;;;;;;;11.83;9.70;;;;;;;11.70;93.93;101311.78;5029389;28;20186;-71
2022/06/01 07:16:49;;;;;;;13.67;10.40;;;;;;;11.85;93.62;101309.53;5029822;28;20202;-71
2022/06/01 07:19:14;;;;;;;12.20;9.70;;;;;;;12.06;93.01;101312.53;5029076;28;20222;-70
2022/06/01 07:21:41;;;;;;;10.73;9.20;;;;;;;12.26;91.90;101321.53;5029432;28;20190;-71
2022/06/01 07:24:07;;;;;;;11.27;9.00;;;;;;;12.39;91.61;101320.97;5029159;28;20209;-70
2022/06/01 07:26:38;;;;;;;9.77;8.87;;;;;;;12.52;90.78;101318.63;5029320;28;20186;-71
2022/06/01 07:29:04;;;;;;;10.80;8.37;;;;;;;12.80;89.86;101322.56;5029071;28;20840;-71
2022/06/01 07:31:30;;;;;;;12.47;11.27;;;;;;;12.94;89.90;101315.97;5028787;28;20198;-71
2022/06/01 07:33:57;;;;;;;11.83;10.63;;;;;;;13.17;88.70;101311.25;5011802;28;20325;-71
2022/06/01 07:36:22;;;;;;;10.63;9.60;;;;;;;13.26;88.43;101313.97;5028859;28;20710;-71
2022/06/01 07:44:22;;;;;;;9.97;8.80;;;;;;;13.00;89.81;101315.25;5027141;28;20198;-70
2022/06/01 07:46:47;;;;;;;9.27;8.20;;;;;;;13.04;89.40;101311.88;5008910;28;20289;-71
2022/06/01 07:49:14;;;;;;;10.23;8.20;;;;;;;13.09;88.18;101328.25;5009526;28;20286;-71
2022/06/01 07:51:40;;;;;;;8.17;7.37;;;;;;;13.16;87.25;101336.09;4991062;28;20202;-71
2022/06/01 07:54:05;;;;;;;8.03;7.30;;;;;;;13.30;86.11;101344.06;5009368;28;20195;-70
2022/06/01 07:56:32;;;;;;;8.33;7.53;;;;;;;13.54;86.27;101336.72;5009357;28;20183;-70
2022/06/01 07:58:57;;;;;;;8.77;7.87;;;;;;;13.67;85.85;101336.06;4991187;28;20317;-70
2022/06/01 08:01:25;;;;;;;8.20;7.30;;;;;;;13.68;85.29;101343.78;5009231;28;20277;-70
2022/06/01 08:03:56;;;;;;;8.77;7.73;;;;;;;13.76;86.04;101352.50;5008972;28;20199;-71
2022/06/01 08:06:22;;;;;;;9.27;8.37;;;;;;;13.39;85.59;101351.94;4993505;28;20198;-71
2022/06/01 08:08:47;;;;;;;10.70;9.63;;;;;;;13.03;86.50;101357.28;5012746;28;20226;-72
2022/06/01 08:11:12;;;;;;;9.90;9.00;;;;;;;13.26;87.28;101366.25;5012921;28;20278;-71
2022/06/01 08:13:38;;;;;;;12.27;10.30;;;;;;;13.27;87.29;101365.44;5012471;28;20218;-71
2022/06/01 08:16:03;;;;;;;11.80;10.13;;;;;;;13.29;87.55;101358.63;5012960;28;20215;-71
2022/06/01 08:18:29;;;;;;;10.97;9.87;;;;;;;13.35;87.65;101363.84;5011681;28;20254;-71
2022/06/01 08:20:54;;;;;;;11.27;9.00;;;;;;;13.27;86.61;101362.88;5015756;28;20304;-71
2022/06/01 08:23:25;;;;;;;10.83;9.70;;;;;;;13.00;86.40;101364.97;5046249;28;20881;-71
2022/06/01 08:25:50;;;;;;;10.80;9.70;;;;;;;12.97;87.70;101359.75;5031859;28;21005;-72
2022/06/01 08:28:17;;;;;;;12.60;10.37;;;;;;;13.08;87.14;101367.66;5043985;28;20205;-72
2022/06/01 08:30:42;;;;;;;11.97;10.83;;;;;;;13.14;87.65;101366.06;5046285;28;20202;-72
2022/06/01 08:33:08;;;;;;;11.70;10.50;;;;;;;13.17;88.29;101363.53;5014480;28;20256;-72
2022/06/01 08:35:39;;;;;;;11.67;10.40;;;;;;;13.28;87.48;101364.59;5033997;28;20232;-71
2022/06/01 08:38:06;;;;;;;10.40;9.10;;;;;;;13.55;86.30;101361.59;5039446;28;20206;-71
2022/06/01 08:40:36;;;;;;;9.43;8.43;;;;;;;13.69;84.67;101353.25;5032290;28;20190;-71
2022/06/01 08:43:05;;;;;;;8.17;7.37;;;;;;;13.86;83.50;101354.34;5032639;28;20178;-71
2022/06/01 08:45:30;;;;;;;9.03;8.23;;;;;;;14.00;84.02;101362.28;5020193;28;20524;-72
2022/06/01 08:47:56;;;;;;;9.27;8.30;;;;;;;14.14;82.59;101358.19;5012127;28;20201;-71
2022/06/01 08:50:26;;;;;;;8.30;7.50;;;;;;;14.13;81.52;101348.72;5011819;28;20804;-72
2022/06/01 08:52:54;;;;;;;9.27;7.73;;;;;;;14.17;82.03;101347.91;5019073;28;20181;-72
2022/06/01 08:55:20;;;;;;;9.07;8.03;;;;;;;13.75;81.05;101361.06;5051437;28;20186;-72
2022/06/01 08:57:57;;;;;;;7.83;7.03;;;;;;;13.76;81.31;101359.38;5033731;28;20308;-72
2022/06/01 09:00:26;;;;;;;6.80;6.10;;;;;;;14.09;79.75;101352.97;5051305;28;20189;-73
2022/06/01 09:03:22;;;;;;;7.43;5.60;;;;;;;14.40;78.91;101365.44;5051660;28;20180;-70
2022/06/01 09:05:52;;;;;;;7.53;6.83;;;;;;;14.32;80.54;101359.31;5051378;28;20190;-70
2022/06/01 09:08:46;;;;;;;6.77;6.00;;;;;;;14.18;79.12;101354.81;5051594;28;20628;-72
2022/06/01 09:11:19;;;;;;;6.20;5.60;;;;;;;14.30;78.19;101361.00;5050951;28;20575;-73
2022/06/01 09:13:57;;;;;;;7.63;5.33;;;;;;;14.17;77.25;101364.22;5046623;28;20187;-73
2022/06/01 09:16:28;;;;;;;6.70;6.10;;;;;;;14.42;77.68;101370.59;5031229;28;20185;-73
2022/06/01 09:18:55;;;;;;;6.43;5.90;;;;;;;14.29;78.09;101369.59;5023172;28;20221;-73
2022/06/01 09:24:09;;;;;;;6.97;5.50;;;;;;;14.48;76.16;101384.44;5030962;28;20194;-73
2022/06/01 09:26:35;;;;;;;6.63;6.03;;;;;;;14.51;77.52;101381.03;5031586;28;20189;-72
2022/06/01 09:29:02;;;;;;;7.67;6.97;;;;;;;15.21;77.69;101386.97;5032748;28;20217;-73
2022/06/01 09:31:34;;;;;;;5.23;4.73;;;;;;;15.87;72.97;101376.31;5051150;28;20208;-73
2022/06/01 09:34:27;;;;;;;6.50;4.40;;;;;;;16.22;70.19;101375.69;5050776;28;20243;-72
2022/06/01 09:37:20;;;;;;;3.77;3.37;;;;;;;16.06;68.79;101380.72;5051273;28;20248;-72
2022/06/01 09:39:55;;;;;;;4.43;3.23;;;;;;;16.28;66.82;101380.00;5026622;28;20806;-73
2022/06/01 09:42:39;;;;;;;2.80;2.60;;;;;;;16.45;66.07;101376.69;5029687;28;20190;-73
2022/06/01 09:45:33;;;;;;;3.97;3.10;;;;;;;16.78;66.71;101369.03;5031028;28;20239;-72
2022/06/01 09:48:16;;;;;;;3.50;3.20;;;;;;;16.98;64.65;101369.94;5031177;28;20319;-73
2022/06/01 09:50:44;;;;;;;3.50;3.20;;;;;;;17.42;64.19;101364.81;5030974;28;20194;-72
2022/06/01 09:53:10;;;;;;;3.63;3.33;;;;;;;17.93;64.20;101365.66;5030660;28;20693;-73
2022/06/01 09:55:36;;;;;;;4.00;3.60;;;;;;;18.07;63.72;101358.69;4996919;28;20283;-73
2022/06/01 09:58:08;;;;;;;3.90;3.60;;;;;;;18.07;63.61;101355.22;5030520;28;20325;-73
2022/06/01 10:06:21;;;;;;;3.30;3.00;;;;;;;18.64;61.11;101353.31;5030670;28;20204;-72
2022/06/01 10:09:05;;;;;;;2.67;2.47;;;;;;;18.38;60.47;101357.72;5030061;28;20210;-72
2022/06/01 10:11:40;;;;;;;2.63;2.40;;;;;;;18.42;60.65;101356.00;5030433;28;20244;-73
2022/06/01 10:14:19;;;;;;;2.67;2.47;;;;;;;18.78;59.49;101351.50;5030017;28;20277;-73
2022/06/01 10:17:22;;;;;;;1.77;1.67;;;;;;;19.19;58.58;101348.59;5030071;28;20265;-72
2022/06/01 10:20:05;;;;;;;1.63;1.53;;;;;;;19.59;54.67;101347.44;5019003;28;20240;-72
2022/06/01 10:22:43;;;;;;;1.47;1.37;;;;;;;19.86;52.79;101362.78;5030532;28;20797;-72
2022/06/01 10:25:13;;;;;;;1.60;1.50;;;;;;;19.46;56.23;101346.69;5030496;28;20197;-72
2022/06/01 10:27:54;;;;;;;1.80;1.70;;;;;;;19.03;55.52;101357.41;5012172;28;20248;-73
2022/06/01 10:30:24;;;;;;;1.40;1.30;;;;;;;19.31;54.60;101349.44;5029812;28;20656;-71
2022/06/01 10:33:00;;;;;;;1.77;1.63;;;;;;;19.67;54.44;101340.44;5037018;28;20206;-71
2022/06/01 10:35:37;;;;;;;2.80;1.70;;;;;;;20.15;52.79;101333.00;5029461;28;20272;-72
2022/06/01 10:38:35;;;;;;;1.40;1.30;;;;;;;20.54;52.29;101332.50;5029803;28;20229;-72
2022/06/01 10:41:14;;;;;;;1.20;1.10;;;;;;;20.71;50.52;101327.94;5029473;28;20606;-72
2022/06/01 10:43:47;;;;;;;1.43;1.30;;;;;;;20.68;48.64;101335.78;5027469;28;20544;-71
2022/06/01 10:46:35;;;;;;;1.30;1.20;;;;;;;20.98;47.72;101332.78;5030407;28;20181;-72
2022/06/01 10:49:26;;;;;;;1.30;1.20;;;;;;;21.04;48.96;101326.59;5028464;28;20218;-72
2022/06/01 10:52:03;;;;;;;2.07;1.27;;;;;;;21.23;47.67;101328.06;5018399;28;20190;-72
2022/06/01 10:54:40;;;;;;;1.60;1.30;;;;;;;20.65;48.32;101319.34;5034275;28;20198;-72
2022/06/01 10:57:09;;;;;;;2.50;1.47;;;;;;;20.54;49.11;101326.47;5032233;28;20232;-72
2022/06/01 10:59:34;;;;;;;2.47;1.80;;;;;;;20.54;46.02;101321.25;5029067;28;20269;-72
2022/06/01 11:02:34;;;;;;;3.20;1.83;;;;;;;20.64;45.97;101321.06;5029531;28;20190;-72
2022/06/01 11:05:26;;;;;;;2.53;2.33;;;;;;;21.19;46.78;101316.78;5039673;28;20217;-72
2022/06/01 11:08:01;;;;;;;3.03;2.10;;;;;;;21.53;45.83;101317.97;5018748;28;20233;-72
2022/06/01 11:10:30;;;;;;;1.73;1.63;;;;;;;21.62;45.21;101303.88;5030072;28;20178;-72
2022/06/01 11:13:17;;;;;;;1.87;1.60;;;;;;;21.79;45.80;101313.16;5029245;28;20179;-72
2022/06/01 11:15:56;;;;;;;1.60;1.50;;;;;;;21.70;45.65;101309.88;5029746;28;20166;-72
2022/06/01 11:18:40;;;;;;;2.10;1.90;;;;;;;21.28;45.30;101305.38;5011084;28;20222;-72
2022/06/01 11:21:21;;;;;;;2.13;1.70;;;;;;;21.58;45.60;101297.88;5032694;28;20182;-72
2022/06/01 11:23:55;;;;;;;2.70;1.77;;;;;;;21.78;45.46;101306.22;5048885;28;20186;-72
2022/06/01 11:26:45;;;;;;;1.80;1.70;;;;;;;22.00;44.88;101302.31;5031501;28;20190;-72
2022/06/01 11:29:47;;;;;;;1.70;1.50;;;;;;;22.33;46.84;101296.41;5048782;28;20249;-72
2022/06/01 11:32:18;;;;;;;2.30;1.77;;;;;;;21.93;45.15;101298.09;5031353;28;20527;-72
2022/06/01 11:34:51;;;;;;;2.10;1.90;;;;;;;22.04;44.05;101300.50;5048893;28;20712;-73
2022/06/01 11:37:27;;;;;;;2.53;2.10;;;;;;;21.91;45.67;101294.66;5035210;28;20217;-72
2022/06/01 11:39:59;;;;;;;2.50;1.63;;;;;;;22.10;44.33;101306.44;5029019;28;20189;-71
2022/06/01 11:42:31;;;;;;;2.03;1.90;;;;;;;21.70;45.06;101304.66;5031402;28;20189;-71
2022/06/01 11:45:06;;;;;;;2.63;1.90;;;;;;;21.75;45.27;101308.03;5035865;28;20202;-71
2022/06/01 11:47:46;;;;;;;3.63;2.17;;;;;;;22.60;45.06;101297.56;5017652;28;20221;-71
2022/06/01 11:50:44;;;;;;;3.57;2.53;;;;;;;22.65;43.82;101303.53;5035006;28;20192;-71
2022/06/01 11:53:20;;;;;;;2.40;2.20;;;;;;;21.07;44.64;101313.53;5015789;28;20186;-71
2022/06/01 11:55:48;;;;;;;2.43;1.60;;;;;;;21.93;44.21;101313.75;5015819;28;20186;-71
2022/06/01 11:58:14;;;;;;;3.07;2.43;;;;;;;21.38;45.69;101313.00;5026120;28;20220;-71
2022/06/01 12:00:51;;;;;;;2.63;2.40;;;;;;;22.02;44.17;101313.56;5017650;28;20202;-71
2022/06/01 12:03:16;;;;;;;2.73;2.53;;;;;;;20.59;45.91;101309.03;5035368;28;20288;-71